• Join FlightAware (Why Join?)
  • Login
  • US Flag 
02:30AM EDT


 

Airport Tracker/Info


-or-


 

Live Flight TrackerFlight Track Log ✈ N201LH ✈ 30-Jun-2013 ✈ KLDM - KHYX

Flight Track Log - Related Links

Times and Time Zones

All times are in EDT time to prevent confusion due to time zone crossing. See the N201LH flight status page for this flight to view local times or setup timezone preferences in your user account.

Time Position Orientation Groundspeed Altitude Reporting Facility
EDT Latitude Longitude Course Direction KTS MPH feet Rate Location/Type
05:26PM 43.9394 -86.3025 109° East 86 99 3,900  Level Minneapolis Center
05:27PM 43.9317 -86.2706 109° East 87 100 4,400 480 Climbing Minneapolis Center
05:28PM 43.9242 -86.2367 107° East 89 102 4,900 240 Climbing Minneapolis Center
05:29PM 43.9164 -86.1925 104° East 104 120 5,000  Climbing Minneapolis Center
05:30PM 43.9069 -86.1397 104° East 126 145 5,000  Level Minneapolis Center
05:31PM 43.8914 -86.0733 108° East 139 160 5,000  Level Minneapolis Center
05:32PM 43.8797 -86.0172 106° East 145 167 5,000  Level Minneapolis Center
05:33PM 43.8675 -85.9622 107° East 149 171 5,000  Level Minneapolis Center
05:34PM 43.8553 -85.9083 107° East 148 170 5,000  Level Minneapolis Center
05:35PM 43.8481 -85.8528 100° East 148 170 5,000  Level Minneapolis Center
05:36PM 43.8392 -85.7967 102° East 148 170 5,000  Level Minneapolis Center
05:37PM 43.8239 -85.7306 108° East 149 171 5,000  Level Minneapolis Center
05:38PM 43.8114 -85.6767 108° East 148 170 5,000  Level Minneapolis Center
05:40PM 43.8006 -85.6197 105° East 150 173 5,000  Level Minneapolis Center
05:41PM 43.7894 -85.5647 106° East 150 173 5,000  Level Minneapolis Center
05:42PM 43.7786 -85.5097 105° East 149 171 5,000  Level Minneapolis Center
05:43PM 43.7686 -85.4544 104° East 148 170 5,000  Level Minneapolis Center
05:44PM 43.7533 -85.3878 108° East 151 174 5,000  Level Minneapolis Center
05:45PM 43.7439 -85.3328 103° East 149 171 5,000  Level Minneapolis Center
05:46PM 43.7336 -85.2781 105° East 148 170 5,000  Level Minneapolis Center
05:47PM 43.7214 -85.2231 107° East 149 171 5,000  Level Minneapolis Center
05:48PM 43.7122 -85.1678 103° East 149 171 5,000  Level Minneapolis Center
05:49PM 43.7011 -85.1139 106° East 147 169 5,000  Level Minneapolis Center
05:50PM 43.6872 -85.0472 106° East 150 173 5,000  Level Minneapolis Center
05:51PM 43.6725 -84.9831 108° East 147 169 5,000  Level Minneapolis Center
05:52PM 43.6603 -84.9264 107° East 151 174 5,000  Level Minneapolis Center
05:53PM 43.6478 -84.8717 108° East 151 174 5,000  Level Minneapolis Center
05:54PM 43.6367 -84.8167 106° East 150 173 5,000  Level Minneapolis Center
05:55PM 43.6267 -84.7606 104° East 150 173 5,000  Level Minneapolis Center
05:56PM 43.6139 -84.6939 105° East 150 173 5,000  Level Minneapolis Center
05:57PM 43.6033 -84.6506 109° East 150 173 5,000  Level Minneapolis Center
05:58PM 43.5864 -84.5864 110° East 149 171 5,000  Level Minneapolis Center
05:59PM 43.5767 -84.5411 106° East 150 173 5,000 -60 Level Minneapolis Center
06:00PM 43.5633 -84.4711 105° East 154 177 4,900 -240 Descending Minneapolis Center
06:01PM 43.5533 -84.4150 104° East 154 177 4,600 -300 Descending Minneapolis Center